createdAt,value
2019-03-03T00:02:04.752Z,52.98
2019-03-03T00:04:38.208Z,63.58
2019-03-03T00:07:11.791Z,46.68
2019-03-03T00:09:45.226Z,54.65
2019-03-03T00:12:19.090Z,55.60
2019-03-03T00:15:10.920Z,86.65
2019-03-03T00:18:02.010Z,51.13
2019-03-03T00:20:35.741Z,59.67
2019-03-03T00:23:09.718Z,48.28
2019-03-03T00:25:43.373Z,46.58
2019-03-03T00:28:24.005Z,41.60
2019-03-03T00:30:58.184Z,42.20
2019-03-03T00:33:32.279Z,44.38
2019-03-03T00:36:05.989Z,45.03
2019-03-03T00:38:41.207Z,38.63
2019-03-03T00:41:16.102Z,42.20
2019-03-03T00:43:57.954Z,58.05
2019-03-03T00:46:48.529Z,47.65
2019-03-03T00:49:30.557Z,48.80
2019-03-03T00:52:08.825Z,45.00
2019-03-03T00:55:00.056Z,43.45
2019-03-03T00:57:31.093Z,51.83
2019-03-03T01:00:17.078Z,49.18
2019-03-03T01:05:23.519Z,44.48
2019-03-03T01:08:06.437Z,49.95
2019-03-03T01:10:41.928Z,49.27
2019-03-03T01:13:26.797Z,45.03
2019-03-03T01:16:19.774Z,49.98
2019-03-03T01:18:56.129Z,45.12
2019-03-03T01:21:45.287Z,44.55
2019-03-03T01:24:19.400Z,42.70
2019-03-03T01:26:52.701Z,47.25
2019-03-03T01:29:25.075Z,46.90
2019-03-03T01:31:57.551Z,34.95
2019-03-03T01:34:30.458Z,35.48
2019-03-03T01:37:03.535Z,42.45
2019-03-03T01:39:36.447Z,36.93
2019-03-03T01:42:12.268Z,36.90
2019-03-03T01:44:44.475Z,38.00
2019-03-03T01:47:17.071Z,41.45
2019-03-03T01:49:49.407Z,43.80
2019-03-03T01:52:21.761Z,34.15
2019-03-03T01:54:55.486Z,41.63
2019-03-03T01:57:28.703Z,59.42
2019-03-03T02:00:03.959Z,48.25
2019-03-03T02:02:50.698Z,47.33
2019-03-03T02:05:23.360Z,52.88
2019-03-03T02:08:09.488Z,44.50
2019-03-03T02:10:41.967Z,52.25
2019-03-03T02:13:14.161Z,52.58
2019-03-03T02:15:46.270Z,56.20
2019-03-03T02:18:20.724Z,45.58
2019-03-03T02:20:53.906Z,42.53
2019-03-03T02:23:27.623Z,47.08
2019-03-03T02:25:59.793Z,48.80
2019-03-03T02:28:32.187Z,44.67
2019-03-03T02:31:04.952Z,38.35
2019-03-03T02:33:37.171Z,42.53
2019-03-03T02:36:16.608Z,54.25
2019-03-03T02:38:47.177Z,44.80
2019-03-03T02:41:19.855Z,50.12
2019-03-03T02:43:54.748Z,48.23
2019-03-03T02:46:25.743Z,47.98
2019-03-03T02:48:57.702Z,51.45
2019-03-03T02:51:29.715Z,40.95
2019-03-03T02:54:04.812Z,44.23
2019-03-03T02:56:37.171Z,44.85
2019-03-03T02:59:09.764Z,40.70
2019-03-03T03:01:45.050Z,47.75
2019-03-03T03:04:19.870Z,51.00
2019-03-03T03:06:56.508Z,49.05
2019-03-03T03:09:33.217Z,46.50
2019-03-03T03:12:15.188Z,49.10
2019-03-03T03:14:49.051Z,38.78
2019-03-03T03:17:31.729Z,35.58
2019-03-03T03:20:10.046Z,47.55
2019-03-03T03:22:45.056Z,43.40
2019-03-03T03:25:27.669Z,46.95
2019-03-03T03:28:16.320Z,51.85
2019-03-03T03:30:52.291Z,41.98
2019-03-03T03:33:26.852Z,40.78
2019-03-03T03:36:01.801Z,43.58
2019-03-03T03:38:43.105Z,37.08
2019-03-03T03:41:19.126Z,42.27
2019-03-03T03:44:02.099Z,37.48
2019-03-03T03:46:37.159Z,43.90
2019-03-03T03:49:11.794Z,40.12
2019-03-03T03:51:50.794Z,18.23
2019-03-03T03:54:25.214Z,35.90
2019-03-03T03:57:03.163Z,34.78
2019-03-03T03:59:42.444Z,34.55
2019-03-03T04:02:34.210Z,34.85
2019-03-03T04:05:10.941Z,36.30
2019-03-03T04:08:02.485Z,44.33
2019-03-03T04:10:54.950Z,47.08
2019-03-03T04:13:42.161Z,41.15
2019-03-03T04:16:35.417Z,50.88
2019-03-03T04:19:14.229Z,46.98
2019-03-03T04:21:49.564Z,42.78
2019-03-03T04:24:43.669Z,48.50
2019-03-03T04:27:24.803Z,39.90
2019-03-03T04:30:32.449Z,57.38
2019-03-03T04:39:18.273Z,58.55
2019-03-03T04:41:57.497Z,30.92
2019-03-03T04:44:44.626Z,29.92
2019-03-03T04:47:23.661Z,28.25
2019-03-03T04:50:00.283Z,55.70
2019-03-03T04:52:36.607Z,19.27
2019-03-03T04:55:15.758Z,60.98
2019-03-03T04:58:08.537Z,54.58
2019-03-03T05:00:48.537Z,66.15
2019-03-03T05:03:29.099Z,59.93
2019-03-03T05:06:22.057Z,51.60
2019-03-03T05:09:04.854Z,32.50
2019-03-03T05:12:17.914Z,21.45
2019-03-03T05:14:54.295Z,72.00
2019-03-03T05:17:34.131Z,12.78
2019-03-03T05:20:27.712Z,63.40
2019-03-03T05:23:01.338Z,63.45
2019-03-03T05:25:51.121Z,81.00
2019-03-03T05:28:31.163Z,66.37
2019-03-03T05:31:09.442Z,72.12
2019-03-03T05:33:42.501Z,28.83
2019-03-03T05:36:17.299Z,71.02
2019-03-03T05:38:52.100Z,54.60
2019-03-03T05:41:28.611Z,75.97
2019-03-03T05:44:02.134Z,64.20
2019-03-03T05:46:35.997Z,69.85
2019-03-03T05:49:22.094Z,30.23
2019-03-03T05:51:57.345Z,30.40
2019-03-03T05:54:37.417Z,70.03
2019-03-03T05:57:10.818Z,80.95
2019-03-03T05:59:44.539Z,84.28
2019-03-03T06:02:18.076Z,80.47
2019-03-03T06:04:53.715Z,83.17
2019-03-03T06:07:27.944Z,87.45
2019-03-03T06:10:01.593Z,76.87
2019-03-03T06:12:35.366Z,69.32
2019-03-03T06:15:16.571Z,82.27
2019-03-03T06:17:50.328Z,64.07
2019-03-03T06:20:25.389Z,71.53
2019-03-03T06:22:58.982Z,77.60
2019-03-03T06:25:34.680Z,75.52
2019-03-03T06:28:09.768Z,76.42
2019-03-03T06:30:44.597Z,78.28
2019-03-03T06:33:18.598Z,68.55
2019-03-03T06:35:52.849Z,35.50
2019-03-03T06:38:27.611Z,66.02
2019-03-03T06:41:01.768Z,60.15
2019-03-03T06:43:36.187Z,61.42
2019-03-03T06:46:09.648Z,61.37
2019-03-03T06:48:45.726Z,65.03
2019-03-03T06:51:18.754Z,62.95
2019-03-03T06:54:03.385Z,74.87
2019-03-03T06:56:32.785Z,71.02
2019-03-03T06:59:06.786Z,60.73
2019-03-03T07:01:40.754Z,68.20
2019-03-03T07:04:15.057Z,63.85
2019-03-03T07:06:49.500Z,42.30
2019-03-03T07:09:25.861Z,45.98
2019-03-03T07:12:02.041Z,67.17
2019-03-03T07:14:35.917Z,62.38
2019-03-03T07:17:11.510Z,60.00
2019-03-03T07:19:50.055Z,66.70
2019-03-03T07:22:23.568Z,55.10
2019-03-03T07:25:01.397Z,65.83
2019-03-03T07:27:44.572Z,57.15
2019-03-03T07:30:18.492Z,55.15
2019-03-03T07:33:08.678Z,54.60
2019-03-03T07:35:42.749Z,46.40
2019-03-03T07:38:17.163Z,46.75
2019-03-03T07:40:51.678Z,52.48
2019-03-03T07:43:25.037Z,53.00
2019-03-03T07:45:58.985Z,54.70
2019-03-03T07:48:32.407Z,53.75
2019-03-03T07:51:06.031Z,50.05
2019-03-03T07:53:40.201Z,47.58
2019-03-03T07:56:35.410Z,48.33
2019-03-03T07:59:09.355Z,42.27
2019-03-03T08:01:43.149Z,46.45
2019-03-03T08:04:20.590Z,42.53
2019-03-03T08:06:54.332Z,48.83
2019-03-03T08:09:27.642Z,38.63
2019-03-03T08:12:01.285Z,42.83
2019-03-03T08:14:37.749Z,43.23
2019-03-03T08:17:11.347Z,41.40
2019-03-03T08:19:44.692Z,44.85
2019-03-03T08:22:18.702Z,41.25
2019-03-03T08:24:53.694Z,47.73
2019-03-03T08:27:35.920Z,41.00
2019-03-03T08:30:15.318Z,34.90
2019-03-03T08:32:49.906Z,39.63
2019-03-03T08:35:24.887Z,38.50
2019-03-03T08:37:58.890Z,49.90
2019-03-03T08:40:33.581Z,50.55
2019-03-03T08:43:11.306Z,42.05
2019-03-03T08:46:04.947Z,43.85
2019-03-03T08:48:47.043Z,42.13
2019-03-03T08:51:25.446Z,45.63
2019-03-03T08:54:17.295Z,33.58
2019-03-03T08:56:52.758Z,50.12
2019-03-03T08:59:44.767Z,42.27
2019-03-03T09:02:35.550Z,39.38
2019-03-03T09:05:11.109Z,43.20
2019-03-03T09:07:49.259Z,35.63
2019-03-03T09:10:25.534Z,22.60
2019-03-03T09:13:18.553Z,53.50
2019-03-03T09:15:52.764Z,50.38
2019-03-03T09:18:34.862Z,44.93
2019-03-03T09:21:19.163Z,47.93
2019-03-03T09:23:53.822Z,58.68
2019-03-03T09:26:31.360Z,48.58
2019-03-03T09:29:18.228Z,53.85
2019-03-03T09:32:09.161Z,53.35
2019-03-03T09:34:47.484Z,49.42
2019-03-03T09:37:22.371Z,50.08
2019-03-03T09:40:09.133Z,53.42
2019-03-03T09:42:52.595Z,53.68
2019-03-03T09:45:48.891Z,44.00
2019-03-03T09:48:29.452Z,49.65
2019-03-03T09:51:07.658Z,66.40
2019-03-03T09:53:45.974Z,60.35
2019-03-03T09:56:33.705Z,53.13
2019-03-03T09:59:11.206Z,50.48
2019-03-03T10:01:53.586Z,46.33
2019-03-03T10:04:51.137Z,43.95
2019-03-03T10:07:43.861Z,46.48
2019-03-03T10:10:39.445Z,30.43
2019-03-03T10:13:42.492Z,53.23
2019-03-03T10:16:38.979Z,61.08
2019-03-03T10:19:26.710Z,44.13
2019-03-03T10:22:22.379Z,51.63
2019-03-03T10:25:00.332Z,61.15
2019-03-03T10:27:37.761Z,62.90
2019-03-03T10:30:23.105Z,57.98
2019-03-03T10:33:06.135Z,44.83
2019-03-03T10:35:52.338Z,62.85
2019-03-03T10:38:47.952Z,61.70
2019-03-03T10:41:50.597Z,54.95
2019-03-03T10:44:28.647Z,68.25
2019-03-03T10:47:20.257Z,77.53
2019-03-03T10:49:57.985Z,67.42
2019-03-03T10:52:48.062Z,77.67
2019-03-03T10:55:29.428Z,84.22
2019-03-03T10:58:19.415Z,82.88
2019-03-03T11:01:13.087Z,87.75
2019-03-03T11:03:48.396Z,75.05
2019-03-03T11:06:39.447Z,68.45
2019-03-03T11:09:47.852Z,79.77
2019-03-03T11:12:22.989Z,68.20
2019-03-03T11:15:28.551Z,84.72
2019-03-03T11:18:16.705Z,66.53
2019-03-03T11:21:01.197Z,54.77
2019-03-03T11:23:47.880Z,53.48
2019-03-03T11:26:26.119Z,64.12
2019-03-03T11:29:20.849Z,54.90
2019-03-03T11:32:14.511Z,58.78
2019-03-03T11:34:52.351Z,60.98
2019-03-03T11:37:32.197Z,62.35
2019-03-03T11:40:16.906Z,48.83
2019-03-03T11:42:55.891Z,65.15
2019-03-03T11:45:35.299Z,79.27
2019-03-03T11:48:10.878Z,77.22
2019-03-03T11:50:52.775Z,72.35
2019-03-03T11:53:44.216Z,66.95
2019-03-03T11:56:31.212Z,73.50
2019-03-03T11:59:21.819Z,64.50
2019-03-03T12:02:12.209Z,61.20
2019-03-03T12:05:00.690Z,35.58
2019-03-03T12:07:36.792Z,64.87
2019-03-03T12:13:03.752Z,59.88
2019-03-03T12:15:41.798Z,66.10
2019-03-03T12:18:24.723Z,59.90
2019-03-03T12:21:16.236Z,52.78
2019-03-03T12:23:51.333Z,65.62
2019-03-03T12:26:32.354Z,59.67
2019-03-03T12:32:45.455Z,58.05
2019-03-03T12:35:01.044Z,62.62
2019-03-03T12:37:39.395Z,64.77
2019-03-03T12:40:22.333Z,38.88
2019-03-03T12:45:36.655Z,59.70
2019-03-03T12:48:20.842Z,59.53
2019-03-03T12:51:13.083Z,55.35
2019-03-03T12:53:48.728Z,59.85
2019-03-03T12:56:29.728Z,63.33
2019-03-03T12:59:20.212Z,57.17
2019-03-03T13:02:48.707Z,59.93
2019-03-03T13:07:46.987Z,56.45
2019-03-03T13:10:25.612Z,62.90
2019-03-03T13:13:00.535Z,61.60
2019-03-03T13:15:51.559Z,53.70
2019-03-03T13:18:38.626Z,56.53
2019-03-03T13:21:16.274Z,47.98
2019-03-03T13:23:51.664Z,55.52
2019-03-03T13:26:29.944Z,35.38
2019-03-03T13:29:07.724Z,56.08
2019-03-03T13:31:42.792Z,60.20
2019-03-03T13:34:28.347Z,63.08
2019-03-03T13:37:38.917Z,49.30
2019-03-03T13:40:17.633Z,50.60
2019-03-03T13:42:52.984Z,34.90
2019-03-03T13:45:27.231Z,59.58
2019-03-03T13:48:01.024Z,54.40
2019-03-03T13:50:35.884Z,58.73
2019-03-03T13:53:09.427Z,58.78
2019-03-03T13:55:44.144Z,64.45
2019-03-03T13:58:17.885Z,52.50
2019-03-03T14:00:51.809Z,61.23
2019-03-03T14:03:25.681Z,65.75
2019-03-03T14:05:59.353Z,32.28
2019-03-03T14:08:32.803Z,57.25
2019-03-03T14:11:29.458Z,58.00
2019-03-03T14:14:38.431Z,59.67
2019-03-03T14:17:12.166Z,55.75
2019-03-03T14:19:45.312Z,49.25
2019-03-03T14:22:19.906Z,51.63
2019-03-03T14:24:53.676Z,49.03
2019-03-03T14:27:40.456Z,44.60
2019-03-03T14:30:21.568Z,39.70
2019-03-03T14:32:55.604Z,43.15
2019-03-03T14:35:29.079Z,27.07
2019-03-03T14:38:05.776Z,33.00
2019-03-03T14:40:40.689Z,20.20
2019-03-03T14:43:14.643Z,23.85
2019-03-03T14:45:48.344Z,33.02
2019-03-03T14:48:24.178Z,32.03
2019-03-03T14:51:05.213Z,28.62
2019-03-03T14:53:43.125Z,29.52
2019-03-03T14:56:17.658Z,31.42
2019-03-03T14:58:53.761Z,30.92
2019-03-03T15:01:29.576Z,32.83
2019-03-03T15:04:03.619Z,32.53
2019-03-03T15:06:37.409Z,25.55
2019-03-03T15:09:15.486Z,30.92
2019-03-03T15:11:48.940Z,33.18
2019-03-03T15:14:31.001Z,38.45
2019-03-03T15:17:06.406Z,36.38
2019-03-03T15:19:39.979Z,33.08
2019-03-03T15:22:13.656Z,31.80
2019-03-03T15:24:47.849Z,37.48
2019-03-03T15:27:23.148Z,34.30
2019-03-03T15:29:57.049Z,34.83
2019-03-03T15:32:30.612Z,31.40
2019-03-03T15:35:05.081Z,31.75
2019-03-03T15:37:41.644Z,35.10
2019-03-03T15:40:27.042Z,29.75
2019-03-03T15:42:59.993Z,30.27
2019-03-03T15:45:34.219Z,37.65
2019-03-03T15:48:07.610Z,38.38
2019-03-03T15:50:45.315Z,41.83
2019-03-03T15:53:18.954Z,46.55
2019-03-03T15:55:53.405Z,37.48
2019-03-03T15:58:29.235Z,25.02
2019-03-03T16:01:04.024Z,8.85
2019-03-03T16:03:38.606Z,33.28
2019-03-03T16:06:15.093Z,18.42
2019-03-03T16:08:49.914Z,24.45
2019-03-03T16:11:27.856Z,22.90
2019-03-03T16:14:03.489Z,25.12
2019-03-03T16:16:38.856Z,38.20
2019-03-03T16:19:13.659Z,21.57
2019-03-03T16:21:52.103Z,25.00
2019-03-03T16:24:28.354Z,15.65
2019-03-03T16:27:06.165Z,39.45
2019-03-03T16:29:40.604Z,42.35
2019-03-03T16:32:14.831Z,25.23
2019-03-03T16:34:48.838Z,32.20
2019-03-03T16:37:23.324Z,44.20
2019-03-03T16:39:59.909Z,44.45
2019-03-03T16:42:34.337Z,28.55
2019-03-03T16:45:10.116Z,34.30
2019-03-03T16:47:44.097Z,20.32
2019-03-03T16:50:21.276Z,16.02
2019-03-03T16:52:55.699Z,29.98
2019-03-03T16:55:29.386Z,16.05
2019-03-03T16:58:04.791Z,21.77
2019-03-03T17:00:38.625Z,26.15
2019-03-03T17:03:12.265Z,19.00
2019-03-03T17:05:45.733Z,21.75
2019-03-03T17:08:19.340Z,38.98
2019-03-03T17:10:53.629Z,17.90
2019-03-03T17:13:27.088Z,26.85
2019-03-03T17:16:00.544Z,18.80
2019-03-03T17:18:35.576Z,20.72
2019-03-03T17:21:22.106Z,15.48
2019-03-03T17:23:56.349Z,11.85
2019-03-03T17:26:30.466Z,31.25
2019-03-03T17:29:05.387Z,19.75
2019-03-03T17:31:39.102Z,18.92
2019-03-03T17:34:13.271Z,33.18
2019-03-03T17:36:47.250Z,20.08
2019-03-03T17:39:21.461Z,28.62
2019-03-03T17:41:55.155Z,30.82
2019-03-03T17:44:29.594Z,23.42
2019-03-03T17:47:03.514Z,26.48
2019-03-03T17:49:37.192Z,26.10
2019-03-03T17:52:12.499Z,36.75
2019-03-03T17:54:45.936Z,29.37
2019-03-03T17:57:19.660Z,34.90
2019-03-03T17:59:53.044Z,27.82
2019-03-03T18:02:26.655Z,32.23
2019-03-03T18:05:00.436Z,34.48
2019-03-03T18:07:34.188Z,25.02
2019-03-03T18:10:09.769Z,19.45
2019-03-03T18:12:43.778Z,26.65
2019-03-03T18:15:20.169Z,32.67
2019-03-03T18:18:13.969Z,29.05
2019-03-03T18:20:47.653Z,25.37
2019-03-03T18:23:21.227Z,37.17
2019-03-03T18:25:55.117Z,34.23
2019-03-03T18:28:29.282Z,23.90
2019-03-03T18:31:03.150Z,19.82
2019-03-03T18:33:37.437Z,18.40
2019-03-03T18:36:11.422Z,26.27
2019-03-03T18:38:45.113Z,16.87
2019-03-03T18:41:18.826Z,15.03
2019-03-03T18:43:52.510Z,26.60
2019-03-03T18:46:25.919Z,23.35
2019-03-03T18:48:59.739Z,34.65
2019-03-03T18:51:33.327Z,17.50
2019-03-03T18:54:07.239Z,36.58
2019-03-03T18:56:40.647Z,30.25
2019-03-03T18:59:14.444Z,27.20
2019-03-03T19:01:51.788Z,33.60
2019-03-03T19:04:25.530Z,35.92
2019-03-03T19:06:58.948Z,15.68
2019-03-03T19:09:32.734Z,30.90
2019-03-03T19:12:06.043Z,17.42
2019-03-03T19:14:39.525Z,34.63
2019-03-03T19:17:13.217Z,32.75
2019-03-03T19:19:47.256Z,13.25
2019-03-03T19:22:20.962Z,22.32
2019-03-03T19:24:54.472Z,29.75
2019-03-03T19:27:28.181Z,26.80
2019-03-03T19:30:01.949Z,42.83
2019-03-03T19:32:35.302Z,40.20
2019-03-03T19:35:10.806Z,39.03
2019-03-03T19:37:44.834Z,41.77
2019-03-03T19:40:19.733Z,42.33
2019-03-03T19:42:53.332Z,36.50
2019-03-03T19:45:35.268Z,41.18
2019-03-03T19:50:41.649Z,36.80
2019-03-03T19:53:15.327Z,12.63
2019-03-03T19:55:49.259Z,12.50
2019-03-03T19:58:22.620Z,11.63
2019-03-03T20:00:56.580Z,33.63
2019-03-03T20:03:30.357Z,28.80
2019-03-03T20:06:04.259Z,33.63
2019-03-03T20:08:37.691Z,36.15
2019-03-03T20:11:11.587Z,37.53
2019-03-03T20:13:44.857Z,31.85
2019-03-03T20:16:29.850Z,42.15
2019-03-03T20:19:03.853Z,21.37
2019-03-03T20:21:38.450Z,18.95
2019-03-03T20:24:12.901Z,21.82
2019-03-03T20:26:46.904Z,36.98
2019-03-03T20:29:22.179Z,20.80
2019-03-03T20:31:55.813Z,30.75
2019-03-03T20:34:29.568Z,36.30
2019-03-03T20:37:03.493Z,39.48
2019-03-03T20:39:37.296Z,42.55
2019-03-03T20:42:12.549Z,31.12
2019-03-03T20:44:46.062Z,29.75
2019-03-03T20:47:19.851Z,32.70
2019-03-03T20:49:53.149Z,22.37
2019-03-03T20:52:28.771Z,14.70
2019-03-03T20:55:01.687Z,28.55
2019-03-03T20:57:36.606Z,34.80
2019-03-03T21:00:14.764Z,14.33
2019-03-03T21:02:48.308Z,15.15
2019-03-03T21:05:21.639Z,22.87
2019-03-03T21:07:55.730Z,19.80
2019-03-03T21:10:33.753Z,25.00
2019-03-03T21:13:07.552Z,18.60
2019-03-03T21:15:40.793Z,32.80
2019-03-03T21:18:26.623Z,19.42
2019-03-03T21:21:00.434Z,33.45
2019-03-03T21:23:34.255Z,31.55
2019-03-03T21:26:08.277Z,42.38
2019-03-03T21:28:42.103Z,28.30
2019-03-03T21:31:15.897Z,24.23
2019-03-03T21:33:50.075Z,13.90
2019-03-03T21:36:23.934Z,37.58
2019-03-03T21:38:57.191Z,36.53
2019-03-03T21:41:30.932Z,40.50
2019-03-03T21:44:04.233Z,46.37
2019-03-03T21:46:38.261Z,39.03
2019-03-03T21:49:11.826Z,34.63
2019-03-03T21:51:45.623Z,36.55
2019-03-03T21:54:19.070Z,40.17
2019-03-03T21:56:52.625Z,38.25
2019-03-03T21:59:27.030Z,40.55
2019-03-03T22:02:01.416Z,39.53
2019-03-03T22:04:36.691Z,40.20
2019-03-03T22:07:13.855Z,44.67
2019-03-03T22:09:46.773Z,46.53
2019-03-03T22:12:20.802Z,40.17
2019-03-03T22:14:54.481Z,37.95
2019-03-03T22:17:28.348Z,44.77
2019-03-03T22:20:02.314Z,43.23
2019-03-03T22:22:36.024Z,43.75
2019-03-03T22:25:11.439Z,42.15
2019-03-03T22:27:44.938Z,36.90
2019-03-03T22:30:19.757Z,42.70
2019-03-03T22:32:53.853Z,41.83
2019-03-03T22:35:28.112Z,42.25
2019-03-03T22:38:02.377Z,42.78
2019-03-03T22:40:36.236Z,41.00
2019-03-03T22:43:30.147Z,37.78
2019-03-03T22:46:06.276Z,43.05
2019-03-03T22:48:40.275Z,40.85
2019-03-03T22:51:14.765Z,39.53
2019-03-03T22:53:48.470Z,46.42
2019-03-03T22:56:21.819Z,42.60
2019-03-03T22:59:02.589Z,45.23
2019-03-03T23:01:36.839Z,48.85
2019-03-03T23:04:21.756Z,42.13
2019-03-03T23:06:59.909Z,42.55
2019-03-03T23:12:49.216Z,48.95
2019-03-03T23:15:40.268Z,51.40
2019-03-03T23:18:43.938Z,49.33
2019-03-03T23:21:19.842Z,45.88
2019-03-03T23:24:17.202Z,44.88
2019-03-03T23:26:50.470Z,50.33
2019-03-03T23:29:23.997Z,56.00
2019-03-03T23:31:57.601Z,49.08
2019-03-03T23:34:31.922Z,55.95
2019-03-03T23:37:05.334Z,52.62
2019-03-03T23:39:39.457Z,46.92
2019-03-03T23:42:13.139Z,49.85
2019-03-03T23:44:47.178Z,44.55
2019-03-03T23:47:20.468Z,47.25
2019-03-03T23:50:14.233Z,32.08
2019-03-03T23:52:50.732Z,41.95
2019-03-03T23:55:24.013Z,27.17
2019-03-03T23:57:59.438Z,47.75
